Terminal Aerodrome Forecast
Issued by NWS

Home | Current Version | Previous Version | Text Only | Print | Product List | Glossary On
Versions: 1 2 3 4 5 6 7 8 9 10 11 12 13 14 15 16 17 18 19 20 21 22 23 24 25 26
000
FTAK31 PANC 032331
TAFADQ
TAF
PADQ 032331Z 0400/0424 08011KT P6SM SCT070 OVC150
     FM040700 07015G22KT P6SM -SHRA SCT015 OVC025
     FM041000 06015G22KT 4SM -RA BR OVC008
     FM042100 09011KT P6SM -SHRA SCT008 OVC015=

USA.gov is the U.S. government's official web portal to all federal, state and local government web resources and services.